| time (UTC) | temp F | wind direction | speed MPH | gust MPH | rain 1hr in | rain 24hr in | rain mn in | humidity % | barometer mb |
| 20260904183016 | 69 | 209 | 6.0 | 8.0 | 0.00 | 0.00 | 0.00 | 85 | 1014.7 |
| 20260904181514 | 69 | 207 | 7.0 | 9.0 | 0.00 | 0.00 | 0.00 | 85 | 1014.7 |
| 20260904180019 | 68 | 234 | 6.0 | 9.0 | 0.00 | 0.00 | 0.00 | 85 | 1014.8 |
| 20260904174513 | 68 | 203 | 7.0 | 10.0 | 0.00 | 0.00 | 0.00 | 85 | 1014.8 |
| 20260904173013 | 68 | 205 | 6.0 | 9.0 | 0.00 | 0.00 | 0.00 | 85 | 1014.9 |
| 20260904171513 | 68 | 200 | 6.0 | 8.0 | 0.00 | 0.00 | 0.00 | 85 | 1014.8 |
| 20260904170011 | 68 | 205 | 7.0 | 10.0 | 0.00 | 0.00 | 0.00 | 85 | 1014.9 |
| 20260904164509 | 68 | 186 | 6.0 | 8.0 | 0.00 | 0.00 | 0.00 | 85 | 1014.6 |
| 20260904163008 | 68 | 189 | 7.0 | 8.0 | 0.00 | 0.00 | 0.00 | 84 | 1014.6 |
| 20260904161506 | 68 | 200 | 6.0 | 8.0 | 0.00 | 0.00 | 0.00 | 84 | 1014.4 |
| 20260904160006 | 68 | 181 | 6.0 | 8.0 | 0.00 | 0.00 | 0.00 | 85 | 1014.3 |
| 20260904154503 | 69 | 165 | 7.0 | 10.0 | 0.00 | 0.00 | 0.00 | 83 | 1014.0 |
| 20260904153002 | 69 | 15 | 1.0 | 4.0 | 0.00 | 0.00 | 0.00 | 84 | 1013.8 |
| 20260904151559 | 68 | 15 | 1.0 | 6.0 | 0.00 | 0.00 | 0.00 | 85 | 1013.8 |
| 20260904150056 | 68 | 105 | 1.0 | 7.0 | 0.00 | 0.00 | 0.00 | 87 | 1013.8 |
| 20260904144553 | 66 | 65 | 4.0 | 7.0 | 0.00 | 0.00 | 0.00 | 87 | 1013.8 |
| 20260904143054 | 65 | 43 | 4.0 | 7.0 | 0.00 | 0.00 | 0.00 | 88 | 1013.7 |
| 20260904141551 | 65 | 51 | 5.0 | 7.0 | 0.00 | 0.00 | 0.00 | 88 | 1013.5 |
| 20260904140051 | 64 | 51 | 5.0 | 7.0 | 0.00 | 0.00 | 0.00 | 89 | 1013.4 |
| 20260904134556 | 64 | 56 | 5.0 | 7.0 | 0.00 | 0.00 | 0.00 | 89 | 1013.3 |
| 20260904133049 | 64 | 48 | 4.0 | 6.0 | 0.00 | 0.00 | 0.00 | 89 | 1013.2 |
| 20260904131550 | 64 | 51 | 4.0 | 6.0 | 0.00 | 0.00 | 0.00 | 89 | 1013.1 |
| 20260904130044 | 64 | 53 | 4.0 | 8.0 | 0.00 | 0.00 | 0.00 | 89 | 1013.1 |
| 20260904124542 | 64 | 58 | 4.0 | 6.0 | 0.00 | 0.00 | 0.00 | 89 | 1013.1 |
| 20260904123040 | 65 | 55 | 4.0 | 6.0 | 0.00 | 0.00 | 0.00 | 89 | 1012.9 |
| 20260904121540 | 65 | 57 | 4.0 | 6.0 | 0.00 | 0.00 | 0.00 | 89 | 1013.0 |
| 20260904120039 | 65 | 63 | 4.0 | 5.0 | 0.00 | 0.00 | 0.00 | 90 | 1013.0 |
| 20260904114539 | 65 | 60 | 4.0 | 6.0 | 0.00 | 0.00 | 0.00 | 89 | 1013.1 |
| 20260904113042 | 66 | 63 | 3.0 | 5.0 | 0.00 | 0.00 | 0.00 | 89 | 1013.1 |
| 20260904111539 | 66 | 57 | 4.0 | 7.0 | 0.00 | 0.00 | 0.00 | 89 | 1013.1 |
| 20260904110037 | 66 | 78 | 3.0 | 6.0 | 0.00 | 0.00 | 0.00 | 90 | 1013.1 |
| 20260904104536 | 66 | 71 | 3.0 | 6.0 | 0.00 | 0.00 | 0.00 | 90 | 1013.1 |
| 20260904103046 | 66 | 77 | 2.0 | 5.0 | 0.00 | 0.00 | 0.00 | 91 | 1013.0 |
| 20260904101542 | 66 | 71 | 3.0 | 5.0 | 0.00 | 0.00 | 0.00 | 91 | 1012.9 |
| 20260904100033 | 66 | 109 | 2.0 | 4.0 | 0.00 | 0.00 | 0.00 | 91 | 1012.8 |
| 20260904094540 | 65 | 109 | 2.0 | 4.0 | 0.00 | 0.00 | 0.00 | 91 | 1012.9 |
| 20260904093032 | 65 | 147 | 2.0 | 4.0 | 0.00 | 0.00 | 0.00 | 91 | 1012.8 |
| 20260904091531 | 65 | 147 | 0.0 | 0.0 | 0.00 | 0.00 | 0.00 | 91 | 1012.9 |
| 20260904090032 | 65 | 147 | 0.0 | 0.0 | 0.00 | 0.00 | 0.00 | 91 | 1012.9 |
| 20260904084530 | 65 | 147 | 0.0 | 1.0 | 0.00 | 0.00 | 0.00 | 91 | 1013.1 |
| 20260904083037 | 65 | 147 | 1.0 | 3.0 | 0.00 | 0.00 | 0.00 | 90 | 1013.1 |
| 20260904081523 | 65 | 147 | 0.0 | 0.0 | 0.00 | 0.00 | 0.00 | 90 | 1013.2 |
| 20260904080025 | 65 | 147 | 0.0 | 2.0 | 0.00 | 0.00 | 0.00 | 89 | 1013.3 |
| 20260904074520 | 66 | 147 | 0.0 | 3.0 | 0.00 | 0.00 | 0.00 | 89 | 1013.3 |
| 20260904073022 | 66 | 147 | 1.0 | 3.0 | 0.00 | 0.00 | 0.00 | 89 | 1013.3 |
| 20260904071517 | 67 | 147 | 0.0 | 3.0 | 0.00 | 0.00 | 0.00 | 89 | 1013.2 |
| 20260904070015 | 67 | 147 | 1.0 | 3.0 | 0.00 | 0.00 | 0.00 | 89 | 1013.4 |
| 20260904064516 | 67 | 168 | 1.0 | 7.0 | 0.00 | 0.00 | 0.00 | 89 | 1013.4 |
| 20260904063014 | 67 | 171 | 4.0 | 7.0 | 0.00 | 0.00 | 0.00 | 89 | 1013.4 |
| 20260904061513 | 67 | 196 | 4.0 | 6.0 | 0.00 | 0.00 | 0.00 | 89 | 1013.4 |
| 20260904060017 | 68 | 223 | 3.0 | 7.0 | 0.00 | 0.00 | 0.00 | 89 | 1013.3 |
| 20260904054532 | 68 | 255 | 4.0 | 7.0 | 0.00 | 0.00 | 0.00 | 89 | 1013.3 |
| 20260904053015 | 68 | 227 | 4.0 | 7.0 | 0.00 | 0.00 | 0.00 | 89 | 1013.2 |
| 20260904051515 | 68 | 232 | 6.0 | 8.0 | 0.00 | 0.00 | 0.00 | 88 | 1013.3 |
| 20260904050028 | 68 | 227 | 4.0 | 7.0 | 0.00 | 0.00 | 0.00 | 88 | 1013.4 |
| 20260904044514 | 68 | 219 | 5.0 | 7.0 | 0.00 | 0.00 | 0.00 | 88 | 1013.4 |
| 20260904043017 | 68 | 220 | 5.0 | 7.0 | 0.00 | 0.00 | 0.00 | 88 | 1013.3 |
| 20260904041509 | 68 | 242 | 3.0 | 7.0 | 0.00 | 0.00 | 0.00 | 88 | 1013.3 |
| 20260904040009 | 68 | 240 | 2.0 | 6.0 | 0.00 | 0.00 | 0.00 | 88 | 1013.3 |
| 20260904034507 | 68 | 192 | 5.0 | 9.0 | 0.00 | 0.00 | 0.00 | 88 | 1013.2 |
| 20260904033020 | 68 | 186 | 4.0 | 6.0 | 0.00 | 0.00 | 0.00 | 88 | 1012.9 |
| 20260904031506 | 68 | 194 | 3.0 | 5.0 | 0.00 | 0.00 | 0.00 | 88 | 1012.8 |
| 20260904030005 | 68 | 223 | 3.0 | 6.0 | 0.00 | 0.00 | 0.00 | 87 | 1012.7 |
| 20260904024507 | 68 | 238 | 5.0 | 8.0 | 0.00 | 0.00 | 0.00 | 87 | 1012.6 |
| 20260904023002 | 68 | 234 | 6.0 | 9.0 | 0.00 | 0.00 | 0.00 | 87 | 1012.8 |
| 20260904021507 | 68 | 208 | 3.0 | 5.0 | 0.00 | 0.00 | 0.00 | 87 | 1012.7 |
| 20260904020002 | 68 | 264 | 4.0 | 9.0 | 0.00 | 0.00 | 0.00 | 88 | 1012.8 |
| 20260904014502 | 68 | 248 | 7.0 | 11.0 | 0.00 | 0.00 | 0.00 | 88 | 1012.9 |
| 20260904013000 | 68 | 267 | 6.0 | 11.0 | 0.00 | 0.00 | 0.00 | 88 | 1012.7 |
| 20260904011559 | 69 | 271 | 7.0 | 12.0 | 0.00 | 0.00 | 0.00 | 89 | 1012.9 |
| 20260904010114 | 69 | 242 | 9.0 | 12.0 | 0.00 | 0.00 | 0.00 | 89 | 1013.1 |
| 20260904004558 | 69 | 261 | 9.0 | 12.0 | 0.00 | 0.00 | 0.00 | 88 | 1013.0 |
| 20260904003114 | 69 | 262 | 11.0 | 14.0 | 0.00 | 0.00 | 0.00 | 89 | 1013.0 |
| 20260904001556 | 69 | 258 | 9.0 | 14.0 | 0.00 | 0.00 | 0.00 | 88 | 1013.2 |
| 20260904000054 | 69 | 234 | 11.0 | 15.0 | 0.00 | 0.00 | 0.00 | 87 | 1013.1 |
| 20260903234550 | 69 | 254 | 11.0 | 15.0 | 0.00 | 0.00 | 0.00 | 87 | 1013.0 |
| 20260903233050 | 70 | 229 | 11.0 | 14.0 | 0.00 | 0.00 | 0.00 | 87 | 1013.0 |
| 20260903231546 | 70 | 230 | 11.0 | 14.0 | 0.00 | 0.00 | 0.00 | 86 | 1013.0 |
| 20260903230043 | 69 | 225 | 10.0 | 15.0 | 0.00 | 0.00 | 0.00 | 87 | 1013.2 |
| 20260903224542 | 70 | 206 | 11.0 | 15.0 | 0.00 | 0.00 | 0.00 | 88 | 1013.2 |
| 20260903223048 | 69 | 211 | 10.0 | 13.0 | 0.00 | 0.00 | 0.00 | 89 | 1013.3 |
| 20260903221540 | 70 | 216 | 10.0 | 12.0 | 0.00 | 0.00 | 0.00 | 89 | 1013.4 |
| 20260903220035 | 69 | 219 | 9.0 | 12.0 | 0.00 | 0.00 | 0.00 | 89 | 1013.8 |
| 20260903214540 | 69 | 209 | 10.0 | 12.0 | 0.00 | 0.00 | 0.00 | 90 | 1013.9 |
| 20260903213033 | 70 | 204 | 10.0 | 12.0 | 0.00 | 0.00 | 0.00 | 90 | 1013.9 |
| 20260903211530 | 69 | 202 | 10.0 | 13.0 | 0.00 | 0.00 | 0.00 | 90 | 1013.9 |
| 20260903210030 | 69 | 211 | 11.0 | 13.0 | 0.00 | 0.00 | 0.00 | 90 | 1014.0 |
| 20260903204530 | 69 | 204 | 10.0 | 12.0 | 0.00 | 0.00 | 0.00 | 90 | 1014.0 |
| 20260903203032 | 70 | 213 | 10.0 | 12.0 | 0.00 | 0.00 | 0.00 | 90 | 1014.0 |
| 20260903201528 | 69 | 202 | 11.0 | 12.0 | 0.00 | 0.00 | 0.00 | 90 | 1014.2 |
| 20260903200027 | 69 | 208 | 10.0 | 12.0 | 0.00 | 0.00 | 0.00 | 90 | 1014.2 |
| 20260903194526 | 69 | 224 | 9.0 | 14.0 | 0.00 | 0.00 | 0.00 | 91 | 1014.4 |
| 20260903193025 | 69 | 197 | 10.0 | 12.0 | 0.00 | 0.00 | 0.00 | 91 | 1014.4 |
| 20260903191528 | 69 | 190 | 10.0 | 14.0 | 0.00 | 0.00 | 0.00 | 91 | 1014.6 |
| 20260903190024 | 69 | 189 | 10.0 | 13.0 | 0.00 | 0.00 | 0.00 | 91 | 1014.7 |
| 20260903184523 | 69 | 186 | 10.0 | 12.0 | 0.00 | 0.00 | 0.00 | 90 | 1014.9 |